createdAt,value
2023-03-26T00:00:02.028Z,0
2023-03-26T00:16:02.063Z,0
2023-03-26T00:31:02.057Z,0
2023-03-26T00:46:02.121Z,0
2023-03-26T01:00:01.988Z,0
2023-03-26T01:16:02.132Z,0
2023-03-26T01:31:02.054Z,0
2023-03-26T01:46:02.006Z,0
2023-03-26T02:00:01.988Z,0
2023-03-26T02:16:02.075Z,0
2023-03-26T02:31:02.072Z,0
2023-03-26T02:46:02.034Z,0
2023-03-26T03:00:01.928Z,0
2023-03-26T03:16:02.031Z,0
2023-03-26T03:31:02.080Z,0
2023-03-26T03:46:02.070Z,0
2023-03-26T04:00:02.450Z,0
2023-03-26T04:16:02.031Z,0
2023-03-26T04:31:02.376Z,0
2023-03-26T04:46:02.042Z,0
2023-03-26T05:00:02.070Z,0
2023-03-26T05:16:02.021Z,3
2023-03-26T05:31:02.007Z,21
2023-03-26T05:46:02.065Z,58
2023-03-26T06:00:02.014Z,59
2023-03-26T06:16:02.007Z,83
2023-03-26T06:31:02.003Z,106
2023-03-26T06:46:02.838Z,98
2023-03-26T07:00:01.961Z,124
2023-03-26T07:16:02.012Z,125
2023-03-26T07:31:01.955Z,151
2023-03-26T07:46:02.147Z,194
2023-03-26T08:00:02.010Z,263
2023-03-26T08:16:01.980Z,449
2023-03-26T08:31:01.972Z,374
2023-03-26T08:46:02.043Z,526
2023-03-26T09:00:02.920Z,622
2023-03-26T09:16:02.019Z,575
2023-03-26T09:31:01.959Z,716
2023-03-26T09:46:02.012Z,701
2023-03-26T10:00:01.957Z,679
2023-03-26T10:16:01.952Z,693
2023-03-26T10:31:02.029Z,719
2023-03-26T10:46:02.004Z,652
2023-03-26T11:00:01.938Z,659
2023-03-26T11:16:01.970Z,402
2023-03-26T11:31:01.979Z,448
2023-03-26T11:46:02.320Z,445
2023-03-26T12:00:01.959Z,347
2023-03-26T12:16:01.953Z,247
2023-03-26T12:31:01.962Z,171
2023-03-26T12:47:26.480Z,188
2023-03-26T13:00:02.080Z,173
2023-03-26T13:16:01.979Z,168
2023-03-26T13:31:02.015Z,298
2023-03-26T13:46:01.991Z,233
2023-03-26T14:00:01.873Z,206
2023-03-26T14:16:01.926Z,170
2023-03-26T14:31:01.953Z,84
2023-03-26T14:46:01.918Z,107
2023-03-26T15:00:01.869Z,55
2023-03-26T15:16:01.975Z,37
2023-03-26T15:31:01.906Z,31
2023-03-26T15:46:01.925Z,32
2023-03-26T16:00:01.898Z,26
2023-03-26T16:16:01.964Z,17
2023-03-26T16:31:01.959Z,10
2023-03-26T16:46:02.052Z,6
2023-03-26T17:00:06.303Z,2
2023-03-26T17:16:02.033Z,0
2023-03-26T17:31:01.983Z,0
2023-03-26T17:46:03.549Z,0
2023-03-26T18:00:02.001Z,0
2023-03-26T18:16:02.039Z,0
2023-03-26T18:31:01.887Z,0
2023-03-26T18:46:01.981Z,0
2023-03-26T19:00:01.914Z,0
2023-03-26T19:16:01.860Z,0
2023-03-26T19:31:01.922Z,0
2023-03-26T19:46:01.858Z,0
2023-03-26T20:00:01.893Z,0
2023-03-26T20:16:05.288Z,0
2023-03-26T20:31:01.915Z,0
2023-03-26T20:46:01.881Z,0
2023-03-26T21:00:01.912Z,0
2023-03-26T21:16:01.848Z,0
2023-03-26T21:31:01.867Z,0
2023-03-26T21:46:02.889Z,0
2023-03-26T22:00:01.903Z,0
2023-03-26T22:16:01.940Z,0
2023-03-26T22:31:01.937Z,0
2023-03-26T22:46:02.009Z,0
2023-03-26T23:00:01.904Z,0
2023-03-26T23:16:01.920Z,0
2023-03-26T23:31:01.901Z,0
2023-03-26T23:46:01.931Z,0
